Time;durP1;ratioP1;P1;durP2;ratioP2;P2;SDS_P1;SDS_P2;PMS_P1;PMS_P2;Temp;Humidity;BMP_temperature;BMP_pressure;BME280_temperature;BME280_humidity;BME280_pressure;Samples;Min_cycle;Max_cycle;Signal;HPM_P1;HPM_P2
2021/12/06 00:02:08;;;;;;;6.82;6.13;;;8.00;99.90;;;;;;5006110;28;20319;-69
2021/12/06 00:04:42;;;;;;;7.60;6.90;;;7.90;99.90;;;;;;5004013;28;20273;-70
2021/12/06 00:07:16;;;;;;;7.82;7.10;;;7.80;99.90;;;;;;5002448;28;20215;-71
2021/12/06 00:09:47;;;;;;;9.18;6.30;;;7.70;99.90;;;;;;5009572;28;20212;-68
2021/12/06 00:12:18;;;;;;;8.32;6.70;;;7.60;99.90;;;;;;5005646;28;20219;-67
2021/12/06 00:14:49;;;;;;;6.18;5.55;;;7.40;99.90;;;;;;4997898;28;20260;-68
2021/12/06 00:17:20;;;;;;;8.38;6.30;;;7.20;99.90;;;;;;5004539;28;20571;-69
2021/12/06 00:19:53;;;;;;;6.43;5.60;;;7.20;99.90;;;;;;5004423;28;20223;-69
2021/12/06 00:22:24;;;;;;;6.72;6.00;;;7.20;99.90;;;;;;5006181;28;20597;-67
2021/12/06 00:24:57;;;;;;;7.80;5.97;;;7.20;99.90;;;;;;5003515;28;20219;-65
2021/12/06 00:27:28;;;;;;;8.38;5.93;;;7.10;99.90;;;;;;5005748;28;20230;-66
2021/12/06 00:29:59;;;;;;;7.03;6.28;;;7.00;99.90;;;;;;5006456;28;20698;-66
2021/12/06 00:32:30;;;;;;;7.65;6.30;;;7.00;99.90;;;;;;5005871;28;20243;-67
2021/12/06 00:35:03;;;;;;;8.02;7.25;;;7.00;99.90;;;;;;5003175;28;20227;-64
2021/12/06 00:37:42;;;;;;;8.45;6.95;;;7.10;99.90;;;;;;5002237;28;20226;-65
2021/12/06 00:40:14;;;;;;;8.80;6.70;;;6.90;99.90;;;;;;5006733;28;20268;-65
2021/12/06 00:42:45;;;;;;;8.60;7.72;;;6.80;99.90;;;;;;5003172;28;20215;-65
2021/12/06 00:45:15;;;;;;;8.02;7.22;;;6.80;99.90;;;;;;5006373;28;20225;-66
2021/12/06 00:47:46;;;;;;;9.88;7.68;;;6.70;99.90;;;;;;5006868;28;20684;-66
2021/12/06 00:50:19;;;;;;;10.25;8.00;;;6.70;99.90;;;;;;5006472;28;20213;-65
2021/12/06 00:52:51;;;;;;;8.27;7.47;;;6.80;99.90;;;;;;5008977;28;20219;-65
2021/12/06 00:55:24;;;;;;;9.88;8.20;;;6.70;99.90;;;;;;5003957;28;20734;-66
2021/12/06 00:57:57;;;;;;;9.45;7.90;;;6.60;99.90;;;;;;5004241;28;20226;-65
2021/12/06 01:00:34;;;;;;;8.98;8.07;;;6.60;99.90;;;;;;5005930;28;20306;-66
2021/12/06 01:03:06;;;;;;;12.18;9.15;;;6.50;99.90;;;;;;4997365;28;20227;-65
2021/12/06 01:05:39;;;;;;;9.52;8.63;;;6.50;99.90;;;;;;4999216;28;20581;-67
2021/12/06 01:08:10;;;;;;;9.88;8.27;;;6.50;99.90;;;;;;5008946;28;20597;-67
2021/12/06 01:10:42;;;;;;;9.98;7.88;;;6.50;99.90;;;;;;5010274;28;20298;-68
2021/12/06 01:13:13;;;;;;;8.63;7.60;;;6.50;99.90;;;;;;5003059;28;20650;-68
2021/12/06 01:15:44;;;;;;;9.07;8.07;;;6.50;99.90;;;;;;4999744;28;20961;-69
2021/12/06 01:18:18;;;;;;;8.32;7.00;;;6.60;99.90;;;;;;5016214;28;20268;-68
2021/12/06 01:20:56;;;;;;;11.25;7.03;;;6.60;99.90;;;;;;5007573;28;20695;-69
2021/12/06 01:23:32;;;;;;;6.93;6.22;;;6.80;99.90;;;;;;5011398;28;20219;-69
2021/12/06 01:26:25;;;;;;;10.57;7.90;;;6.70;99.90;;;;;;5005124;28;20712;-69
2021/12/06 01:31:52;;;;;;;9.25;8.20;;;6.60;99.90;;;;;;4969559;28;20238;-69
2021/12/06 01:40:00;;;;;;;37.03;23.92;;;6.50;99.90;;;;;;5003704;28;20588;-69
2021/12/06 01:42:31;;;;;;;25.10;18.17;;;6.40;99.90;;;;;;5000585;28;20589;-69
2021/12/06 01:45:02;;;;;;;18.35;14.98;;;6.40;99.90;;;;;;5003782;28;20589;-70
2021/12/06 01:47:35;;;;;;;13.52;9.05;;;6.40;99.90;;;;;;5009896;28;20234;-69
2021/12/06 01:50:09;;;;;;;9.20;7.70;;;6.40;99.90;;;;;;5009918;28;20604;-68
2021/12/06 01:52:43;;;;;;;9.02;8.23;;;6.40;99.90;;;;;;5010170;28;20214;-69
2021/12/06 01:55:16;;;;;;;13.50;11.18;;;6.50;99.90;;;;;;5010324;28;20211;-68
2021/12/06 01:57:48;;;;;;;17.13;13.90;;;6.50;99.90;;;;;;5010028;28;20219;-69
2021/12/06 02:00:24;;;;;;;13.48;12.07;;;6.40;99.90;;;;;;5004240;28;20238;-70
2021/12/06 02:02:55;;;;;;;16.95;15.25;;;6.40;99.90;;;;;;5009590;28;20245;-69
2021/12/06 02:05:26;;;;;;;21.20;19.30;;;6.50;99.90;;;;;;5007350;28;20222;-69
2021/12/06 02:07:59;;;;;;;26.40;22.92;;;6.50;99.90;;;;;;5009578;28;20229;-70
2021/12/06 02:10:33;;;;;;;25.73;23.27;;;6.50;99.90;;;;;;5004893;28;20211;-76
2021/12/06 02:13:05;;;;;;;22.35;19.95;;;6.50;99.90;;;;;;5005530;28;20221;-73
2021/12/06 02:15:42;;;;;;;16.08;14.45;;;6.50;99.90;;;;;;5007105;28;20211;-73
2021/12/06 02:18:28;;;;;;;12.98;11.75;;;6.50;99.90;;;;;;5009758;28;20322;-75
2021/12/06 02:21:12;;;;;;;13.38;11.13;;;6.40;99.90;;;;;;5003605;28;20233;-72
2021/12/06 02:23:43;;;;;;;10.38;9.48;;;6.50;99.90;;;;;;4997895;28;20306;-73
2021/12/06 02:26:15;;;;;;;9.75;8.68;;;6.40;99.90;;;;;;5007200;28;20223;-72
2021/12/06 02:28:47;;;;;;;10.05;8.93;;;6.50;99.90;;;;;;5008339;28;20307;-69
2021/12/06 02:31:20;;;;;;;10.25;8.70;;;6.50;99.90;;;;;;4995679;28;20597;-71
2021/12/06 02:33:54;;;;;;;10.63;9.50;;;6.50;99.90;;;;;;5007506;28;20685;-73
2021/12/06 02:36:28;;;;;;;10.50;9.50;;;6.50;99.90;;;;;;5008248;28;20242;-74
2021/12/06 02:38:59;;;;;;;11.48;10.38;;;6.50;99.90;;;;;;5009753;28;20223;-73
2021/12/06 02:44:27;;;;;;;11.70;10.50;;;6.50;99.90;;;;;;5009157;28;20226;-72
2021/12/06 02:46:58;;;;;;;11.82;10.35;;;6.50;99.90;;;;;;5009776;28;20219;-69
2021/12/06 02:49:40;;;;;;;12.32;11.00;;;6.50;99.90;;;;;;5006780;28;20699;-75
2021/12/06 02:52:13;;;;;;;11.32;10.13;;;6.60;99.90;;;;;;5009541;28;20219;-70
2021/12/06 02:54:44;;;;;;;12.00;10.80;;;6.60;99.90;;;;;;5005559;28;20227;-69
2021/12/06 02:57:31;;;;;;;14.30;12.00;;;6.70;99.90;;;;;;5005157;28;20223;-71
2021/12/06 03:00:05;;;;;;;11.10;10.10;;;6.70;99.90;;;;;;5007312;28;20219;-70
2021/12/06 03:02:37;;;;;;;13.50;12.02;;;6.50;99.90;;;;;;5011167;28;20235;-71
2021/12/06 03:05:08;;;;;;;10.40;9.45;;;6.50;99.90;;;;;;5007702;28;20227;-70
2021/12/06 03:07:41;;;;;;;11.15;10.02;;;6.50;99.90;;;;;;5008622;28;20624;-70
2021/12/06 03:10:12;;;;;;;12.25;11.00;;;6.60;99.90;;;;;;5003419;28;20220;-68
2021/12/06 03:12:44;;;;;;;11.60;10.10;;;6.60;99.90;;;;;;5007371;28;20298;-69
2021/12/06 03:15:16;;;;;;;11.13;10.00;;;6.60;99.90;;;;;;5002553;28;20220;-70
2021/12/06 03:17:47;;;;;;;10.10;9.07;;;6.50;99.90;;;;;;5002629;28;20219;-70
2021/12/06 03:20:19;;;;;;;9.82;8.80;;;6.50;99.90;;;;;;5001913;28;20230;-71
2021/12/06 03:22:51;;;;;;;10.30;9.05;;;6.40;99.90;;;;;;5007082;28;20223;-66
2021/12/06 03:25:22;;;;;;;9.15;8.25;;;6.40;99.90;;;;;;4999852;28;20223;-67
2021/12/06 03:27:56;;;;;;;10.10;9.07;;;6.40;99.90;;;;;;5007964;28;20281;-68
2021/12/06 03:30:27;;;;;;;9.77;8.88;;;6.40;99.90;;;;;;5006549;28;20285;-71
2021/12/06 03:32:58;;;;;;;10.73;9.65;;;6.40;99.90;;;;;;5002404;28;20666;-67
2021/12/06 03:35:29;;;;;;;11.65;10.07;;;6.50;99.90;;;;;;5005493;28;20223;-72
2021/12/06 03:38:02;;;;;;;13.07;10.18;;;6.50;99.90;;;;;;5007939;28;20222;-69
2021/12/06 03:40:33;;;;;;;12.80;10.05;;;6.40;99.90;;;;;;5007337;28;20241;-70
2021/12/06 03:43:06;;;;;;;13.80;10.50;;;6.40;99.90;;;;;;5000605;28;20673;-70
2021/12/06 03:45:38;;;;;;;12.50;10.18;;;6.30;99.90;;;;;;5008087;28;20634;-69
2021/12/06 03:48:09;;;;;;;11.65;9.70;;;6.30;99.90;;;;;;5003731;28;20223;-69
2021/12/06 03:50:40;;;;;;;11.18;10.05;;;6.30;99.90;;;;;;5009945;28;20221;-68
2021/12/06 03:53:13;;;;;;;11.25;10.10;;;6.50;99.90;;;;;;5006184;28;20230;-71
2021/12/06 03:55:44;;;;;;;11.77;10.27;;;6.50;99.90;;;;;;5007394;28;20589;-73
2021/12/06 03:58:15;;;;;;;10.93;9.85;;;6.40;99.90;;;;;;5003789;28;20218;-72
2021/12/06 04:00:46;;;;;;;10.00;8.98;;;6.40;99.90;;;;;;5010628;28;20239;-71
2021/12/06 04:03:18;;;;;;;10.90;9.90;;;6.40;99.90;;;;;;5003400;28;20229;-72
2021/12/06 04:05:50;;;;;;;11.73;10.52;;;6.30;99.90;;;;;;5000497;28;20222;-72
2021/12/06 04:08:22;;;;;;;11.73;10.15;;;6.30;99.90;;;;;;5007679;28;20219;-72
2021/12/06 04:10:55;;;;;;;10.85;9.70;;;6.30;99.90;;;;;;5007125;28;20313;-71
2021/12/06 04:13:26;;;;;;;11.40;10.20;;;6.30;99.90;;;;;;5002586;28;20242;-71
2021/12/06 04:15:58;;;;;;;13.60;11.32;;;6.40;99.90;;;;;;5004148;28;20259;-70
2021/12/06 04:18:29;;;;;;;14.45;10.50;;;6.30;99.90;;;;;;5006022;28;20231;-72
2021/12/06 04:21:00;;;;;;;10.32;9.32;;;6.30;99.90;;;;;;5004704;28;20266;-71
2021/12/06 04:23:32;;;;;;;10.13;9.18;;;6.30;99.90;;;;;;5006038;28;20223;-71
2021/12/06 04:26:04;;;;;;;12.32;11.02;;;6.30;99.90;;;;;;5006316;28;20223;-71
2021/12/06 04:28:36;;;;;;;15.02;13.38;;;6.30;99.90;;;;;;5001659;28;20247;-73
2021/12/06 04:31:07;;;;;;;13.90;11.65;;;6.30;99.90;;;;;;5008892;28;20219;-75
2021/12/06 04:33:38;;;;;;;12.30;11.00;;;6.40;99.90;;;;;;5005844;28;20219;-73
2021/12/06 04:36:09;;;;;;;12.27;10.95;;;6.30;99.90;;;;;;5003304;28;20223;-73
2021/12/06 04:38:43;;;;;;;11.50;10.30;;;6.40;99.90;;;;;;5005897;28;20237;-73
2021/12/06 04:41:14;;;;;;;12.80;10.73;;;6.40;99.90;;;;;;5008992;28;20235;-73
2021/12/06 04:43:45;;;;;;;11.35;9.55;;;6.40;99.90;;;;;;5006372;28;20226;-73
2021/12/06 04:46:16;;;;;;;49.15;18.65;;;6.40;99.90;;;;;;5009107;28;20215;-73
2021/12/06 04:48:47;;;;;;;12.18;11.00;;;6.70;99.90;;;;;;4993802;28;20223;-74
2021/12/06 04:51:18;;;;;;;12.32;10.30;;;6.60;99.90;;;;;;5007405;28;20219;-73
2021/12/06 04:53:51;;;;;;;12.80;10.63;;;6.50;99.90;;;;;;5007687;28;20215;-76
2021/12/06 04:56:37;;;;;;;13.35;11.15;;;6.50;99.90;;;;;;5009713;28;20302;-72
2021/12/06 04:59:12;;;;;;;12.85;11.20;;;6.50;99.90;;;;;;5002440;28;20701;-73
2021/12/06 05:01:46;;;;;;;14.32;12.82;;;6.40;99.90;;;;;;5010940;28;20248;-78
2021/12/06 05:04:21;;;;;;;14.65;12.43;;;6.40;99.90;;;;;;5004776;28;20230;-76
2021/12/06 05:06:57;;;;;;;16.42;12.80;;;6.30;99.90;;;;;;4995674;28;20231;-76
2021/12/06 05:09:36;;;;;;;13.88;12.43;;;6.30;99.90;;;;;;4992441;28;20234;-74
2021/12/06 05:12:09;;;;;;;13.98;12.32;;;6.20;99.90;;;;;;5001657;28;20235;-74
2021/12/06 05:14:41;;;;;;;12.57;11.38;;;6.20;99.90;;;;;;5002590;28;20249;-75
2021/12/06 05:17:12;;;;;;;14.38;12.52;;;6.20;99.90;;;;;;5003354;28;20237;-73
2021/12/06 05:19:43;;;;;;;16.15;12.75;;;6.20;99.90;;;;;;4997229;28;20228;-73
2021/12/06 05:22:14;;;;;;;16.23;12.93;;;6.10;99.90;;;;;;5004320;28;20258;-72
2021/12/06 05:24:46;;;;;;;14.75;11.55;;;6.20;99.90;;;;;;5000130;28;20226;-73
2021/12/06 05:27:19;;;;;;;14.77;13.20;;;6.20;99.90;;;;;;5005068;28;20219;-74
2021/12/06 05:30:02;;;;;;;14.75;13.02;;;6.30;99.90;;;;;;4992721;28;20604;-75
2021/12/06 05:32:50;;;;;;;15.07;12.80;;;6.40;99.90;;;;;;5004412;28;20239;-76
2021/12/06 05:35:33;;;;;;;14.10;12.63;;;6.30;99.90;;;;;;4985659;28;20299;-76
2021/12/06 05:38:07;;;;;;;14.38;12.55;;;6.40;99.90;;;;;;5000057;28;20231;-79
2021/12/06 05:40:46;;;;;;;14.10;12.05;;;6.30;99.90;;;;;;4991772;28;20231;-75
2021/12/06 05:43:20;;;;;;;13.98;12.45;;;6.30;99.90;;;;;;4992968;28;20228;-74
2021/12/06 05:45:52;;;;;;;13.75;11.18;;;6.40;99.90;;;;;;4992448;28;20298;-74
2021/12/06 05:48:23;;;;;;;15.52;12.65;;;6.50;99.90;;;;;;4987036;28;20311;-74
2021/12/06 05:50:54;;;;;;;14.65;12.43;;;6.40;99.90;;;;;;5001658;28;20310;-75
2021/12/06 05:53:27;;;;;;;13.95;12.52;;;6.40;99.90;;;;;;4987530;28;20212;-74
2021/12/06 05:56:00;;;;;;;15.73;12.70;;;6.40;99.90;;;;;;4990352;28;20282;-75
2021/12/06 05:58:32;;;;;;;14.02;12.38;;;6.40;99.90;;;;;;4989094;28;20215;-74
2021/12/06 06:01:04;;;;;;;14.38;12.35;;;6.30;99.90;;;;;;4998738;28;20309;-73
2021/12/06 06:03:35;;;;;;;13.20;11.80;;;6.30;99.90;;;;;;4990693;28;20267;-74
2021/12/06 06:06:09;;;;;;;13.68;12.15;;;6.30;99.90;;;;;;4995805;28;20223;-74
2021/12/06 06:08:40;;;;;;;14.10;11.23;;;6.40;99.90;;;;;;5011860;28;20329;-74
2021/12/06 06:11:18;;;;;;;13.18;11.88;;;6.40;99.90;;;;;;4987154;28;20250;-74
2021/12/06 06:13:49;;;;;;;13.57;12.15;;;6.40;99.90;;;;;;4989078;28;20678;-74
2021/12/06 06:16:21;;;;;;;12.88;11.57;;;6.30;99.90;;;;;;4990750;28;20230;-75
2021/12/06 06:18:53;;;;;;;14.98;12.55;;;6.30;99.90;;;;;;5006318;28;20216;-75
2021/12/06 06:21:24;;;;;;;14.82;12.23;;;6.40;99.90;;;;;;4988880;28;20212;-74
2021/12/06 06:23:55;;;;;;;17.20;12.20;;;6.40;99.90;;;;;;4994401;28;20253;-74
2021/12/06 06:26:27;;;;;;;13.65;10.98;;;6.50;99.90;;;;;;5000791;28;20310;-74
2021/12/06 06:28:58;;;;;;;13.77;11.80;;;6.50;99.90;;;;;;5004344;28;20237;-74
2021/12/06 06:31:29;;;;;;;14.32;11.82;;;6.50;99.90;;;;;;4992886;28;20243;-74
2021/12/06 06:34:00;;;;;;;13.27;11.70;;;6.40;99.90;;;;;;5009651;28;20358;-73
2021/12/06 06:36:35;;;;;;;15.25;11.73;;;6.30;99.90;;;;;;5008905;28;20302;-74
2021/12/06 06:39:09;;;;;;;15.70;12.00;;;6.30;99.90;;;;;;5011591;28;20219;-73
2021/12/06 06:41:42;;;;;;;12.32;11.10;;;6.40;99.90;;;;;;5008258;28;20713;-74
2021/12/06 06:44:15;;;;;;;12.00;10.73;;;6.40;99.90;;;;;;5009832;28;20321;-74
2021/12/06 06:46:46;;;;;;;14.43;12.10;;;6.40;99.90;;;;;;5007133;28;20661;-74
2021/12/06 06:49:19;;;;;;;14.00;11.20;;;6.40;99.90;;;;;;5010461;28;20330;-75
2021/12/06 06:51:50;;;;;;;12.52;11.25;;;6.40;99.90;;;;;;5009453;28;20611;-74
2021/12/06 06:54:21;;;;;;;13.25;10.90;;;6.40;99.90;;;;;;5010659;28;20266;-74
2021/12/06 06:56:55;;;;;;;13.40;11.95;;;6.40;99.90;;;;;;5007698;28;20605;-75
2021/12/06 06:59:26;;;;;;;11.60;10.40;;;6.40;99.90;;;;;;5008850;28;20249;-75
2021/12/06 07:01:57;;;;;;;12.23;10.93;;;6.30;99.90;;;;;;5009770;28;20230;-75
2021/12/06 07:04:28;;;;;;;12.80;11.45;;;6.20;99.90;;;;;;5005431;28;20265;-75
2021/12/06 07:06:59;;;;;;;12.10;10.95;;;6.30;99.90;;;;;;5007760;28;20647;-74
2021/12/06 07:09:30;;;;;;;10.65;9.65;;;6.20;99.90;;;;;;5007543;28;20700;-74
2021/12/06 07:12:03;;;;;;;12.60;11.38;;;6.20;99.90;;;;;;5010050;28;20305;-74
2021/12/06 07:14:34;;;;;;;12.25;10.93;;;6.30;99.90;;;;;;5007642;28;20261;-74
2021/12/06 07:17:05;;;;;;;12.45;10.15;;;6.40;99.90;;;;;;5007086;28;20215;-75
2021/12/06 07:19:36;;;;;;;11.27;10.07;;;6.40;99.90;;;;;;5008874;28;20335;-74
2021/12/06 07:22:07;;;;;;;11.50;10.30;;;6.40;99.90;;;;;;5008642;28;20219;-75
2021/12/06 07:24:38;;;;;;;15.35;11.60;;;6.30;99.90;;;;;;5008163;28;20245;-73
2021/12/06 07:27:11;;;;;;;11.80;10.60;;;6.20;99.90;;;;;;5008699;28;20223;-72
2021/12/06 07:29:41;;;;;;;12.35;11.00;;;6.20;99.90;;;;;;4992953;28;20214;-75
2021/12/06 07:32:12;;;;;;;11.65;10.52;;;6.20;99.90;;;;;;5008808;28;20558;-72
2021/12/06 07:34:43;;;;;;;13.55;11.63;;;6.20;99.90;;;;;;5008348;28;20223;-73
2021/12/06 07:37:14;;;;;;;11.73;10.50;;;6.20;99.90;;;;;;5008626;28;20542;-74
2021/12/06 07:39:46;;;;;;;14.18;11.00;;;6.20;99.90;;;;;;5002425;28;20568;-73
2021/12/06 07:42:18;;;;;;;11.73;10.63;;;6.20;99.90;;;;;;5008180;28;20329;-74
2021/12/06 07:44:50;;;;;;;11.18;10.15;;;6.20;99.90;;;;;;5008683;28;20651;-74
2021/12/06 07:47:22;;;;;;;12.65;11.18;;;6.30;99.90;;;;;;5006368;28;20285;-73
2021/12/06 07:49:53;;;;;;;14.75;12.73;;;6.20;99.90;;;;;;5007724;28;20309;-73
2021/12/06 07:52:28;;;;;;;12.15;10.85;;;6.30;99.90;;;;;;5008676;28;20297;-73
2021/12/06 07:55:00;;;;;;;12.07;10.77;;;6.30;99.90;;;;;;5008160;28;20254;-72
2021/12/06 07:57:33;;;;;;;11.93;10.73;;;6.30;99.90;;;;;;5007671;28;20604;-74
2021/12/06 08:00:05;;;;;;;14.65;11.18;;;6.30;99.90;;;;;;5008332;28;20656;-73
2021/12/06 08:02:36;;;;;;;12.68;10.57;;;6.30;99.90;;;;;;5006143;28;20221;-73
2021/12/06 08:05:32;;;;;;;12.77;10.35;;;6.40;99.90;;;;;;5008291;28;20225;-74
2021/12/06 08:08:07;;;;;;;14.27;11.30;;;6.40;99.90;;;;;;5009147;28;20335;-73
2021/12/06 08:10:40;;;;;;;14.02;12.45;;;6.40;99.90;;;;;;5007881;28;20236;-73
2021/12/06 08:13:13;;;;;;;13.05;10.38;;;6.20;99.90;;;;;;5009823;28;20555;-73
2021/12/06 08:15:44;;;;;;;13.52;11.73;;;6.10;99.90;;;;;;5008629;28;20223;-74
2021/12/06 08:18:16;;;;;;;15.38;11.45;;;6.30;99.90;;;;;;5005273;28;20230;-73
2021/12/06 08:20:47;;;;;;;15.18;11.10;;;6.30;99.90;;;;;;5008868;28;20230;-74
2021/12/06 08:23:18;;;;;;;12.27;10.98;;;6.30;99.90;;;;;;5006971;28;20242;-73
2021/12/06 08:25:51;;;;;;;14.52;11.90;;;6.30;99.90;;;;;;5007245;28;20223;-73
2021/12/06 08:28:25;;;;;;;13.52;11.70;;;6.20;99.90;;;;;;5003681;28;20321;-73
2021/12/06 08:30:56;;;;;;;14.15;11.30;;;6.20;99.90;;;;;;5001268;28;20215;-73
2021/12/06 08:33:29;;;;;;;11.90;10.65;;;6.10;99.90;;;;;;5007485;28;20219;-73
2021/12/06 08:36:01;;;;;;;12.27;9.88;;;6.10;99.90;;;;;;5007776;28;20594;-73
2021/12/06 08:38:38;;;;;;;11.95;10.50;;;6.20;99.90;;;;;;5006802;28;20203;-73
2021/12/06 08:41:11;;;;;;;9.70;8.68;;;6.20;99.90;;;;;;5007177;28;20222;-72
2021/12/06 08:43:44;;;;;;;11.82;9.75;;;6.20;99.90;;;;;;5007556;28;20237;-73
2021/12/06 08:46:20;;;;;;;8.65;7.85;;;6.10;99.90;;;;;;5006012;28;20373;-73
2021/12/06 08:48:52;;;;;;;9.07;8.20;;;6.10;99.90;;;;;;5001427;28;20357;-73
2021/12/06 08:51:26;;;;;;;9.02;8.23;;;6.20;99.90;;;;;;5004832;28;20223;-74
2021/12/06 08:53:58;;;;;;;9.43;7.85;;;6.10;99.90;;;;;;5007732;28;20559;-74
2021/12/06 08:56:29;;;;;;;9.98;8.80;;;6.10;99.90;;;;;;5006303;28;20237;-73
2021/12/06 08:59:02;;;;;;;9.88;8.90;;;6.00;99.90;;;;;;5004572;28;20222;-74
2021/12/06 09:01:34;;;;;;;11.02;8.30;;;6.10;99.90;;;;;;5003944;28;20307;-74
2021/12/06 09:04:25;;;;;;;8.50;7.53;;;6.00;99.90;;;;;;5005693;28;20227;-73
2021/12/06 09:06:58;;;;;;;9.50;8.50;;;6.10;99.90;;;;;;5006658;28;20217;-74
2021/12/06 09:09:32;;;;;;;10.43;7.95;;;6.20;99.90;;;;;;4998894;28;20310;-74
2021/12/06 09:12:06;;;;;;;10.38;9.25;;;6.20;99.90;;;;;;5009182;28;20222;-74
2021/12/06 09:14:39;;;;;;;9.20;8.38;;;6.10;99.90;;;;;;5005448;28;20256;-73
2021/12/06 09:17:10;;;;;;;9.35;8.45;;;6.20;99.90;;;;;;5006151;28;20219;-74
2021/12/06 09:19:41;;;;;;;9.85;8.15;;;6.20;99.90;;;;;;4999606;28;20227;-74
2021/12/06 09:22:12;;;;;;;9.85;7.50;;;6.20;99.90;;;;;;5009131;28;20272;-74
2021/12/06 09:24:44;;;;;;;8.77;7.78;;;6.30;99.90;;;;;;4997830;28;20234;-73
2021/12/06 09:27:15;;;;;;;9.80;7.50;;;6.20;99.90;;;;;;5007100;28;20215;-73
2021/12/06 09:29:48;;;;;;;7.10;6.50;;;6.00;99.90;;;;;;5006181;28;20221;-74
2021/12/06 09:32:19;;;;;;;6.85;6.15;;;6.00;99.90;;;;;;5010677;28;20235;-74
2021/12/06 09:34:54;;;;;;;7.15;5.97;;;6.00;99.90;;;;;;5010689;28;20246;-74
2021/12/06 09:37:25;;;;;;;5.63;5.10;;;6.10;99.90;;;;;;5008367;28;20218;-73
2021/12/06 09:39:57;;;;;;;5.20;4.10;;;6.00;99.90;;;;;;5009701;28;20215;-72
2021/12/06 09:42:32;;;;;;;4.75;3.50;;;6.00;99.90;;;;;;5009288;28;20575;-72
2021/12/06 09:45:05;;;;;;;4.05;3.75;;;6.10;99.90;;;;;;5010909;28;20234;-72
2021/12/06 09:47:36;;;;;;;4.13;3.72;;;6.10;99.90;;;;;;5008231;28;20223;-72
2021/12/06 09:50:09;;;;;;;3.80;3.45;;;6.00;99.90;;;;;;5009902;28;20574;-72
2021/12/06 09:52:40;;;;;;;3.88;3.20;;;5.90;99.90;;;;;;5009169;28;20219;-73
2021/12/06 09:55:11;;;;;;;4.10;3.70;;;5.80;99.90;;;;;;5011875;28;20306;-73
2021/12/06 09:57:42;;;;;;;3.90;3.60;;;5.70;99.90;;;;;;5010313;28;20219;-73
2021/12/06 10:00:18;;;;;;;5.53;3.85;;;5.70;99.90;;;;;;5010648;28;20544;-73
2021/12/06 10:02:49;;;;;;;4.68;3.65;;;5.60;99.90;;;;;;5010293;28;20223;-72
2021/12/06 10:05:26;;;;;;;6.50;4.00;;;5.50;99.90;;;;;;5008579;28;20235;-72
2021/12/06 10:07:57;;;;;;;3.90;3.60;;;5.60;99.90;;;;;;5002343;28;20223;-72
2021/12/06 10:10:30;;;;;;;4.75;4.00;;;5.70;99.90;;;;;;5008441;28;20306;-73
2021/12/06 10:13:02;;;;;;;5.15;4.45;;;5.70;99.90;;;;;;5010032;28;20223;-73
2021/12/06 10:15:36;;;;;;;4.50;4.10;;;5.70;99.90;;;;;;5010191;28;20215;-73
2021/12/06 10:18:09;;;;;;;4.40;4.00;;;5.70;99.90;;;;;;5008028;28;20621;-72
2021/12/06 10:20:43;;;;;;;4.90;4.30;;;5.70;99.90;;;;;;5003659;28;20274;-73
2021/12/06 10:23:15;;;;;;;4.80;4.30;;;5.80;99.90;;;;;;5009385;28;20297;-72
2021/12/06 10:25:49;;;;;;;5.28;4.75;;;5.70;99.90;;;;;;5011442;28;20571;-72
2021/12/06 10:28:23;;;;;;;5.00;4.50;;;5.70;99.90;;;;;;4995526;28;20223;-72
2021/12/06 10:30:58;;;;;;;5.15;4.65;;;5.80;99.90;;;;;;5011713;28;20231;-72
2021/12/06 10:33:30;;;;;;;6.20;4.80;;;5.80;99.90;;;;;;5007551;28;20243;-72
2021/12/06 10:36:04;;;;;;;4.63;3.90;;;5.80;99.90;;;;;;5007616;28;20630;-73
2021/12/06 10:38:38;;;;;;;4.07;3.67;;;5.80;99.90;;;;;;5009696;28;20250;-73
2021/12/06 10:41:11;;;;;;;5.85;5.22;;;5.80;99.90;;;;;;5010236;28;20230;-73
2021/12/06 10:43:50;;;;;;;4.45;3.75;;;5.80;99.90;;;;;;5007590;28;20238;-73
2021/12/06 10:46:23;;;;;;;4.00;3.70;;;5.90;99.90;;;;;;5006617;28;20242;-73
2021/12/06 10:48:56;;;;;;;3.75;3.38;;;5.90;99.90;;;;;;5009002;28;20223;-73
2021/12/06 10:51:28;;;;;;;4.18;3.78;;;6.00;99.90;;;;;;5007028;28;20234;-72
2021/12/06 10:54:04;;;;;;;4.25;3.85;;;6.00;99.90;;;;;;5010806;28;20573;-73
2021/12/06 10:56:42;;;;;;;3.58;3.28;;;5.90;99.90;;;;;;5008214;28;20227;-72
2021/12/06 10:59:18;;;;;;;3.70;3.40;;;5.90;99.90;;;;;;5004401;28;20215;-73
2021/12/06 11:01:53;;;;;;;3.83;3.53;;;5.80;99.90;;;;;;5007322;28;20317;-72
2021/12/06 11:04:28;;;;;;;4.18;3.70;;;5.90;99.90;;;;;;5008232;28;20240;-72
2021/12/06 11:07:05;;;;;;;5.32;4.80;;;5.70;99.90;;;;;;5008493;28;20237;-73
2021/12/06 11:09:39;;;;;;;5.28;3.40;;;5.70;99.90;;;;;;5007880;28;20250;-74
2021/12/06 11:12:12;;;;;;;4.80;4.20;;;5.80;99.90;;;;;;5004887;28;20248;-72
2021/12/06 11:14:44;;;;;;;4.40;4.03;;;5.80;99.90;;;;;;5006045;28;20673;-74
2021/12/06 11:17:19;;;;;;;4.57;3.90;;;5.70;99.90;;;;;;5007354;28;20243;-73
2021/12/06 11:19:51;;;;;;;4.55;4.03;;;5.70;99.90;;;;;;5008540;28;20215;-73
2021/12/06 11:22:24;;;;;;;4.38;4.00;;;5.80;99.90;;;;;;5009264;28;20250;-73
2021/12/06 11:24:56;;;;;;;4.35;3.85;;;5.80;99.90;;;;;;5008344;28;20239;-75
2021/12/06 11:27:29;;;;;;;4.50;3.92;;;5.90;99.90;;;;;;5008020;28;20237;-74
2021/12/06 11:30:03;;;;;;;4.63;3.60;;;5.90;99.90;;;;;;5008182;28;20215;-74
2021/12/06 11:32:38;;;;;;;4.85;4.28;;;5.90;99.90;;;;;;5007640;28;20246;-73
2021/12/06 11:35:13;;;;;;;4.05;3.72;;;6.00;99.90;;;;;;5008387;28;20571;-73
2021/12/06 11:37:46;;;;;;;5.00;4.20;;;6.10;99.90;;;;;;5005385;28;20237;-73
2021/12/06 11:40:21;;;;;;;6.70;4.45;;;6.10;99.90;;;;;;5006327;28;20294;-75
2021/12/06 11:42:56;;;;;;;5.00;4.60;;;6.20;99.90;;;;;;5009624;28;20218;-73
2021/12/06 11:45:34;;;;;;;5.10;4.70;;;6.10;99.90;;;;;;5006788;28;20234;-74
2021/12/06 11:48:09;;;;;;;5.80;5.20;;;6.10;99.90;;;;;;5004709;28;20219;-73
2021/12/06 11:50:42;;;;;;;6.85;6.18;;;6.00;99.90;;;;;;5008422;28;20253;-73
2021/12/06 11:53:16;;;;;;;5.88;5.28;;;6.10;99.90;;;;;;5007404;28;20665;-73
2021/12/06 11:55:52;;;;;;;6.18;5.68;;;6.10;99.90;;;;;;5007755;28;20219;-73
2021/12/06 11:58:26;;;;;;;7.72;7.03;;;6.00;99.90;;;;;;5013597;28;20606;-73
2021/12/06 12:01:09;;;;;;;7.72;6.75;;;6.10;99.90;;;;;;5005720;28;20223;-73
2021/12/06 12:03:44;;;;;;;8.43;7.55;;;6.00;99.90;;;;;;5007011;28;20221;-74
2021/12/06 12:06:28;;;;;;;9.52;7.47;;;6.00;99.90;;;;;;5003590;28;20238;-74
2021/12/06 12:09:13;;;;;;;9.98;7.20;;;6.00;99.90;;;;;;4995619;28;20323;-76
2021/12/06 12:12:05;;;;;;;9.80;7.55;;;6.00;99.90;;;;;;5007525;28;20592;-70
2021/12/06 12:14:39;;;;;;;10.60;9.43;;;5.90;99.90;;;;;;5004334;28;20216;-72
2021/12/06 12:17:14;;;;;;;10.82;8.38;;;5.90;99.90;;;;;;5001742;28;20568;-72
2021/12/06 12:19:49;;;;;;;11.43;10.25;;;5.80;99.90;;;;;;5001926;28;20214;-72
2021/12/06 12:22:25;;;;;;;10.43;9.23;;;5.80;99.90;;;;;;5007567;28;20253;-73
2021/12/06 12:25:01;;;;;;;11.88;9.60;;;5.80;99.90;;;;;;5007793;28;20216;-72
2021/12/06 12:27:38;;;;;;;11.20;9.40;;;5.70;99.90;;;;;;5002629;28;20226;-73
2021/12/06 12:30:11;;;;;;;12.05;10.70;;;5.80;99.90;;;;;;4997646;28;20685;-73
2021/12/06 12:32:42;;;;;;;12.05;10.68;;;5.80;99.90;;;;;;5000378;28;20235;-73
2021/12/06 12:35:17;;;;;;;11.50;10.30;;;5.90;99.90;;;;;;5006253;28;20226;-72
2021/12/06 12:37:53;;;;;;;14.27;11.68;;;5.90;99.90;;;;;;4998641;28;21041;-72
2021/12/06 12:40:26;;;;;;;14.77;12.25;;;5.90;99.90;;;;;;5005786;28;20309;-73
2021/12/06 12:43:00;;;;;;;15.30;11.23;;;5.90;99.90;;;;;;5008622;28;20677;-73
2021/12/06 12:45:35;;;;;;;13.05;11.10;;;5.80;99.90;;;;;;5000344;28;20555;-73
2021/12/06 12:48:07;;;;;;;12.40;11.10;;;5.80;99.90;;;;;;5006059;28;20250;-72
2021/12/06 12:50:39;;;;;;;13.70;12.30;;;5.80;99.90;;;;;;5003986;28;20217;-73
2021/12/06 12:53:14;;;;;;;11.57;10.48;;;5.80;99.90;;;;;;5006895;28;20219;-73
2021/12/06 12:55:48;;;;;;;14.55;11.57;;;5.80;99.90;;;;;;5007414;28;20218;-73
2021/12/06 12:58:21;;;;;;;12.77;11.27;;;5.80;99.90;;;;;;5003977;28;20227;-73
2021/12/06 13:00:56;;;;;;;11.60;10.45;;;5.70;99.90;;;;;;5001757;28;20302;-73
2021/12/06 13:03:36;;;;;;;12.35;10.98;;;5.70;99.90;;;;;;5005144;28;20225;-73
2021/12/06 13:06:24;;;;;;;16.67;10.98;;;5.70;99.90;;;;;;5005449;28;20758;-73
2021/12/06 13:08:57;;;;;;;12.00;10.77;;;5.70;99.90;;;;;;5011426;28;20229;-73
2021/12/06 13:11:31;;;;;;;13.70;10.73;;;5.70;99.90;;;;;;5011032;28;20641;-73
2021/12/06 13:14:03;;;;;;;13.35;11.38;;;5.70;99.90;;;;;;5006159;28;20222;-73
2021/12/06 13:16:44;;;;;;;12.00;10.75;;;5.70;99.90;;;;;;5009883;28;20229;-73
2021/12/06 13:19:21;;;;;;;14.40;10.68;;;5.80;99.90;;;;;;5010778;28;20685;-73
2021/12/06 13:22:09;;;;;;;13.63;11.88;;;5.80;99.90;;;;;;5011038;28;20227;-73
2021/12/06 13:24:59;;;;;;;10.52;9.40;;;5.70;99.90;;;;;;5006296;28;20227;-73
2021/12/06 13:27:40;;;;;;;12.02;10.73;;;5.80;99.90;;;;;;5001538;28;20693;-73
2021/12/06 13:30:21;;;;;;;10.88;9.77;;;5.80;99.90;;;;;;5008138;28;20225;-73